createdAt,value
2023-03-17T00:02:01.165Z,61.91
2023-03-17T00:04:02.664Z,61.01
2023-03-17T00:06:05.420Z,62.38
2023-03-17T00:08:24.210Z,61.53
2023-03-17T00:10:26.812Z,60.69
2023-03-17T00:12:28.275Z,61.67
2023-03-17T00:14:29.745Z,61.62
2023-03-17T00:16:36.206Z,61.57
2023-03-17T00:18:37.708Z,61.73
2023-03-17T00:20:39.461Z,61.55
2023-03-17T00:22:40.977Z,61.30
2023-03-17T00:24:42.612Z,60.53
2023-03-17T00:26:44.365Z,61.08
2023-03-17T00:28:45.816Z,60.91
2023-03-17T00:30:48.073Z,61.08
2023-03-17T00:32:51.826Z,61.23
2023-03-17T00:34:53.425Z,60.85
2023-03-17T00:36:56.006Z,60.34
2023-03-17T00:38:58.348Z,60.99
2023-03-17T00:41:00.069Z,60.70
2023-03-17T00:43:02.706Z,59.32
2023-03-17T00:45:04.460Z,59.31
2023-03-17T00:47:06.156Z,60.39
2023-03-17T00:49:20.177Z,59.91
2023-03-17T00:51:23.267Z,60.31
2023-03-17T00:53:24.645Z,62.56
2023-03-17T00:55:29.350Z,61.08
2023-03-17T00:57:30.744Z,62.17
2023-03-17T00:59:42.081Z,61.58
2023-03-17T01:01:43.523Z,61.27
2023-03-17T01:03:45.772Z,60.92
2023-03-17T01:05:48.267Z,59.58
2023-03-17T01:07:53.036Z,59.48
2023-03-17T01:09:54.896Z,59.90
2023-03-17T01:11:56.390Z,59.49
2023-03-17T01:13:57.770Z,60.29
2023-03-17T01:15:59.242Z,60.67
2023-03-17T01:18:01.657Z,58.87
2023-03-17T01:20:05.370Z,59.72
2023-03-17T01:22:07.796Z,61.18
2023-03-17T01:24:09.695Z,60.86
2023-03-17T01:26:11.668Z,60.40
2023-03-17T01:28:14.913Z,60.79
2023-03-17T01:30:24.695Z,61.61
2023-03-17T01:32:26.987Z,60.62
2023-03-17T01:34:28.787Z,61.33
2023-03-17T01:36:30.197Z,61.12
2023-03-17T01:38:32.475Z,61.28
2023-03-17T01:40:42.517Z,60.55
2023-03-17T01:42:48.322Z,60.14
2023-03-17T01:45:01.761Z,60.47
2023-03-17T01:47:06.402Z,60.54
2023-03-17T01:49:37.406Z,60.64
2023-03-17T01:52:00.854Z,60.67
2023-03-17T01:54:06.698Z,60.84
2023-03-17T01:56:08.414Z,60.74
2023-03-17T01:58:09.810Z,59.98
2023-03-17T02:00:20.553Z,60.11
2023-03-17T02:02:30.792Z,60.27
2023-03-17T02:04:34.003Z,61.15
2023-03-17T02:06:37.033Z,60.31
2023-03-17T02:08:41.530Z,60.17
2023-03-17T02:10:45.058Z,60.99
2023-03-17T02:12:50.945Z,60.95
2023-03-17T02:14:52.852Z,61.85
2023-03-17T02:16:54.308Z,62.31
2023-03-17T02:18:56.063Z,62.66
2023-03-17T02:20:57.576Z,61.81
2023-03-17T02:23:00.344Z,62.38
2023-03-17T02:25:02.130Z,61.02
2023-03-17T02:27:35.443Z,61.71
2023-03-17T02:29:37.737Z,61.68
2023-03-17T02:31:39.629Z,61.61
2023-03-17T02:33:42.304Z,62.80
2023-03-17T02:35:43.678Z,62.08
2023-03-17T02:37:46.587Z,61.44
2023-03-17T02:39:48.009Z,61.37
2023-03-17T02:41:49.469Z,61.50
2023-03-17T02:43:52.038Z,62.38
2023-03-17T02:45:53.612Z,61.84
2023-03-17T02:47:55.963Z,62.62
2023-03-17T02:49:57.421Z,61.31
2023-03-17T02:51:59.029Z,60.96
2023-03-17T02:54:00.976Z,61.22
2023-03-17T02:56:02.517Z,61.20
2023-03-17T02:58:04.236Z,61.55
2023-03-17T03:00:06.253Z,61.01
2023-03-17T03:02:07.715Z,62.19
2023-03-17T03:04:10.033Z,60.88
2023-03-17T03:06:11.417Z,62.31
2023-03-17T03:08:12.812Z,61.38
2023-03-17T03:10:14.461Z,61.12
2023-03-17T03:12:16.177Z,61.26
2023-03-17T03:14:17.631Z,61.75
2023-03-17T03:16:19.151Z,61.57
2023-03-17T03:18:20.675Z,61.80
2023-03-17T03:20:22.075Z,61.98
2023-03-17T03:22:23.532Z,61.77
2023-03-17T03:24:24.961Z,63.39
2023-03-17T03:26:27.212Z,63.47
2023-03-17T03:28:28.589Z,63.41
2023-03-17T03:30:30.231Z,63.56
2023-03-17T03:32:31.815Z,63.56
2023-03-17T03:34:33.254Z,63.57
2023-03-17T03:36:34.677Z,63.24
2023-03-17T03:38:36.081Z,63.79
2023-03-17T03:40:37.671Z,64.65
2023-03-17T03:42:39.159Z,65.18
2023-03-17T03:44:40.773Z,64.04
2023-03-17T03:46:42.267Z,64.43
2023-03-17T03:48:43.700Z,64.36
2023-03-17T03:50:45.189Z,65.39
2023-03-17T03:52:46.654Z,64.36
2023-03-17T03:54:48.099Z,65.66
2023-03-17T03:56:49.516Z,65.44
2023-03-17T03:58:51.237Z,66.33
2023-03-17T04:00:52.648Z,65.45
2023-03-17T04:02:54.138Z,65.18
2023-03-17T04:04:55.636Z,65.14
2023-03-17T04:06:57.111Z,65.22
2023-03-17T04:08:58.579Z,65.64
2023-03-17T04:11:00.265Z,65.93
2023-03-17T04:13:01.844Z,65.02
2023-03-17T04:15:04.020Z,63.94
2023-03-17T04:17:05.443Z,63.78
2023-03-17T04:19:07.273Z,62.79
2023-03-17T04:21:08.880Z,64.49
2023-03-17T04:23:10.649Z,64.12
2023-03-17T04:25:14.513Z,63.58
2023-03-17T04:27:16.982Z,63.58
2023-03-17T04:29:19.052Z,62.56
2023-03-17T04:31:21.101Z,64.18
2023-03-17T04:33:22.763Z,63.66
2023-03-17T04:35:24.138Z,63.95
2023-03-17T04:37:25.979Z,64.39
2023-03-17T04:39:27.537Z,62.62
2023-03-17T04:41:28.912Z,63.19
2023-03-17T04:43:30.307Z,63.88
2023-03-17T04:45:32.314Z,64.27
2023-03-17T04:47:34.136Z,64.25
2023-03-17T04:49:35.689Z,64.17
2023-03-17T04:51:37.103Z,63.44
2023-03-17T04:53:38.581Z,64.39
2023-03-17T04:55:40.234Z,64.83
2023-03-17T04:57:41.655Z,64.25
2023-03-17T04:59:43.155Z,64.89
2023-03-17T05:01:44.553Z,64.57
2023-03-17T05:03:45.946Z,65.45
2023-03-17T05:05:47.462Z,65.44
2023-03-17T05:07:48.871Z,65.25
2023-03-17T05:09:50.243Z,65.44
2023-03-17T05:11:52.095Z,64.61
2023-03-17T05:13:53.565Z,64.88
2023-03-17T05:15:56.184Z,64.76
2023-03-17T05:17:57.614Z,65.33
2023-03-17T05:19:59.000Z,65.88
2023-03-17T05:22:00.455Z,65.84
2023-03-17T05:24:01.829Z,65.40
2023-03-17T05:26:03.268Z,65.21
2023-03-17T05:28:04.741Z,65.55
2023-03-17T05:30:06.631Z,66.58
2023-03-17T05:32:08.077Z,64.48
2023-03-17T05:34:09.780Z,65.53
2023-03-17T05:36:11.168Z,65.33
2023-03-17T05:38:13.729Z,65.70
2023-03-17T05:40:15.345Z,65.89
2023-03-17T05:42:16.795Z,64.87
2023-03-17T05:44:18.199Z,63.88
2023-03-17T05:46:20.498Z,64.97
2023-03-17T05:48:22.761Z,65.60
2023-03-17T05:50:24.892Z,64.46
2023-03-17T05:52:27.022Z,64.68
2023-03-17T05:54:28.500Z,65.32
2023-03-17T05:56:33.417Z,64.28
2023-03-17T05:58:35.454Z,63.92
2023-03-17T06:00:37.694Z,65.27
2023-03-17T06:02:39.666Z,63.96
2023-03-17T06:04:41.876Z,63.75
2023-03-17T06:06:43.668Z,63.19
2023-03-17T06:08:45.678Z,62.90
2023-03-17T06:10:47.274Z,63.59
2023-03-17T06:12:48.737Z,63.25
2023-03-17T06:14:50.275Z,62.60
2023-03-17T06:16:51.660Z,63.69
2023-03-17T06:18:53.099Z,62.91
2023-03-17T06:20:54.609Z,62.94
2023-03-17T06:23:04.526Z,63.17
2023-03-17T06:25:07.071Z,62.25
2023-03-17T06:27:10.839Z,62.00
2023-03-17T06:29:12.538Z,62.47
2023-03-17T06:31:14.001Z,61.70
2023-03-17T06:33:15.916Z,62.07
2023-03-17T06:35:18.017Z,61.46
2023-03-17T06:37:20.142Z,61.70
2023-03-17T06:39:21.874Z,61.32
2023-03-17T06:41:23.336Z,60.91
2023-03-17T06:43:25.054Z,60.90
2023-03-17T06:45:27.132Z,61.22
2023-03-17T06:47:28.506Z,60.59
2023-03-17T06:49:29.923Z,60.93
2023-03-17T06:51:32.438Z,61.27
2023-03-17T06:53:33.876Z,60.74
2023-03-17T06:55:35.638Z,59.70
2023-03-17T06:57:37.338Z,60.43
2023-03-17T06:59:39.002Z,59.41
2023-03-17T07:01:40.629Z,59.73
2023-03-17T07:03:42.149Z,59.83
2023-03-17T07:05:43.551Z,60.64
2023-03-17T07:07:45.924Z,59.04
2023-03-17T07:09:47.816Z,59.82
2023-03-17T07:11:49.589Z,59.11
2023-03-17T07:13:50.990Z,59.00
2023-03-17T07:15:55.231Z,59.58
2023-03-17T07:17:56.828Z,58.26
2023-03-17T07:19:58.202Z,58.68
2023-03-17T07:21:59.634Z,58.32
2023-03-17T07:24:01.581Z,58.17
2023-03-17T07:26:03.777Z,58.94
2023-03-17T07:28:05.182Z,58.11
2023-03-17T07:30:07.416Z,57.74
2023-03-17T07:32:09.623Z,58.11
2023-03-17T07:34:11.209Z,58.10
2023-03-17T07:36:13.114Z,57.78
2023-03-17T07:38:16.826Z,57.30
2023-03-17T07:40:18.596Z,57.08
2023-03-17T07:42:20.186Z,57.17
2023-03-17T07:44:23.123Z,57.24
2023-03-17T07:46:24.636Z,56.55
2023-03-17T07:48:26.105Z,56.39
2023-03-17T07:50:27.535Z,56.02
2023-03-17T07:52:29.007Z,56.68
2023-03-17T07:54:30.474Z,56.64
2023-03-17T07:56:32.606Z,55.95
2023-03-17T07:58:34.933Z,55.88
2023-03-17T08:00:36.541Z,56.50
2023-03-17T08:02:38.218Z,55.61
2023-03-17T08:04:39.720Z,55.20
2023-03-17T08:06:42.247Z,54.85
2023-03-17T08:08:43.718Z,55.42
2023-03-17T08:10:45.369Z,55.75
2023-03-17T08:12:51.658Z,55.11
2023-03-17T08:14:53.449Z,54.89
2023-03-17T08:16:55.635Z,55.94
2023-03-17T08:18:58.781Z,55.20
2023-03-17T08:21:00.195Z,56.33
2023-03-17T08:23:02.001Z,54.45
2023-03-17T08:25:03.747Z,54.66
2023-03-17T08:27:05.365Z,54.23
2023-03-17T08:29:08.036Z,54.82
2023-03-17T08:31:13.397Z,55.57
2023-03-17T08:33:15.143Z,55.73
2023-03-17T08:35:18.493Z,55.75
2023-03-17T08:37:20.682Z,56.53
2023-03-17T08:39:22.141Z,54.48
2023-03-17T08:41:25.303Z,54.93
2023-03-17T08:43:28.072Z,54.85
2023-03-17T08:45:29.887Z,54.23
2023-03-17T08:47:31.598Z,53.29
2023-03-17T08:49:34.878Z,53.61
2023-03-17T08:51:37.857Z,53.02
2023-03-17T08:53:40.255Z,52.28
2023-03-17T08:55:42.265Z,53.94
2023-03-17T08:57:44.587Z,53.11
2023-03-17T08:59:47.362Z,52.58
2023-03-17T09:01:48.784Z,53.69
2023-03-17T09:03:51.650Z,54.20
2023-03-17T09:05:53.528Z,53.22
2023-03-17T09:07:54.985Z,52.35
2023-03-17T09:09:57.061Z,52.82
2023-03-17T09:11:58.617Z,52.48
2023-03-17T09:14:00.202Z,52.86
2023-03-17T09:16:02.587Z,52.63
2023-03-17T09:18:04.594Z,51.93
2023-03-17T09:20:06.541Z,53.04
2023-03-17T09:22:07.983Z,52.82
2023-03-17T09:24:10.007Z,53.92
2023-03-17T09:26:12.487Z,53.05
2023-03-17T09:28:13.870Z,54.13
2023-03-17T09:30:16.414Z,54.79
2023-03-17T09:32:17.828Z,52.22
2023-03-17T09:34:19.219Z,52.18
2023-03-17T09:36:20.677Z,50.75
2023-03-17T09:38:22.753Z,52.16
2023-03-17T09:40:32.848Z,50.85
2023-03-17T09:42:47.676Z,51.56
2023-03-17T09:45:33.775Z,53.18
2023-03-17T09:47:59.955Z,50.13
2023-03-17T09:50:04.659Z,50.81
2023-03-17T09:52:15.029Z,50.60
2023-03-17T09:54:25.888Z,50.64
2023-03-17T09:56:30.950Z,52.06
2023-03-17T09:58:34.111Z,52.89
2023-03-17T10:00:35.644Z,51.05
2023-03-17T10:02:37.864Z,50.85
2023-03-17T10:04:42.243Z,49.86
2023-03-17T10:06:46.732Z,51.50
2023-03-17T10:08:55.400Z,49.62
2023-03-17T10:11:16.232Z,50.97
2023-03-17T10:13:23.842Z,50.78
2023-03-17T10:15:38.366Z,50.37
2023-03-17T10:17:42.025Z,52.72
2023-03-17T10:20:08.391Z,50.19
2023-03-17T10:22:25.236Z,52.11
2023-03-17T10:24:29.608Z,51.20
2023-03-17T10:26:42.556Z,51.73
2023-03-17T10:28:44.231Z,48.93
2023-03-17T10:30:45.893Z,50.68
2023-03-17T10:32:48.615Z,48.71
2023-03-17T10:34:50.171Z,49.03
2023-03-17T10:37:05.533Z,49.81
2023-03-17T10:39:08.128Z,49.59
2023-03-17T10:41:14.664Z,48.38
2023-03-17T10:43:20.456Z,52.16
2023-03-17T10:45:31.359Z,49.25
2023-03-17T10:47:38.178Z,49.50
2023-03-17T10:49:39.681Z,51.56
2023-03-17T10:51:46.341Z,48.65
2023-03-17T10:53:52.901Z,48.72
2023-03-17T10:55:58.767Z,49.86
2023-03-17T10:58:26.750Z,49.17
2023-03-17T11:00:33.720Z,49.34
2023-03-17T11:02:42.928Z,49.74
2023-03-17T11:04:44.322Z,47.01
2023-03-17T11:06:51.055Z,48.20
2023-03-17T11:08:54.730Z,46.96
2023-03-17T11:10:56.868Z,45.43
2023-03-17T11:13:02.565Z,44.24
2023-03-17T11:15:10.126Z,45.31
2023-03-17T11:17:21.071Z,45.17
2023-03-17T11:19:45.999Z,46.00
2023-03-17T11:21:57.102Z,46.54
2023-03-17T11:24:13.576Z,44.63
2023-03-17T11:26:24.203Z,44.25
2023-03-17T11:28:35.109Z,45.15
2023-03-17T11:31:02.362Z,44.98
2023-03-17T11:33:34.006Z,44.54
2023-03-17T11:35:41.612Z,44.78
2023-03-17T11:38:07.950Z,45.35
2023-03-17T11:40:21.680Z,44.80
2023-03-17T11:42:43.370Z,44.53
2023-03-17T11:44:50.747Z,45.03
2023-03-17T11:47:09.077Z,44.71
2023-03-17T11:49:32.549Z,44.35
2023-03-17T11:51:52.600Z,44.66
2023-03-17T11:53:57.384Z,45.20
2023-03-17T11:56:26.413Z,46.47
2023-03-17T11:58:35.584Z,43.87
2023-03-17T12:00:43.850Z,43.45
2023-03-17T12:03:14.829Z,44.62
2023-03-17T12:05:22.995Z,43.26
2023-03-17T12:07:28.883Z,45.15
2023-03-17T12:09:37.164Z,45.05
2023-03-17T12:11:41.591Z,41.97
2023-03-17T12:13:49.614Z,44.60
2023-03-17T12:16:11.246Z,45.68
2023-03-17T12:18:18.676Z,44.07
2023-03-17T12:20:37.793Z,43.69
2023-03-17T12:22:55.927Z,42.73
2023-03-17T12:25:00.967Z,43.25
2023-03-17T12:27:33.889Z,42.37
2023-03-17T12:29:43.658Z,42.56
2023-03-17T12:31:55.975Z,42.50
2023-03-17T12:33:57.656Z,41.65
2023-03-17T12:36:01.317Z,43.76
2023-03-17T12:38:20.646Z,42.47
2023-03-17T12:41:01.916Z,42.66
2023-03-17T12:43:38.974Z,43.01
2023-03-17T12:45:49.258Z,42.59
2023-03-17T12:47:53.604Z,43.91
2023-03-17T12:50:19.100Z,43.22
2023-03-17T12:52:28.189Z,43.11
2023-03-17T12:54:33.213Z,43.88
2023-03-17T12:56:36.648Z,44.79
2023-03-17T12:58:44.132Z,45.61
2023-03-17T13:00:58.395Z,45.25
2023-03-17T13:03:32.956Z,44.67
2023-03-17T13:05:37.217Z,44.34
2023-03-17T13:07:48.978Z,45.64
2023-03-17T13:09:53.499Z,43.27
2023-03-17T13:11:55.127Z,41.75
2023-03-17T13:14:14.057Z,44.21
2023-03-17T13:16:47.331Z,43.46
2023-03-17T13:18:50.214Z,41.54
2023-03-17T13:20:57.595Z,43.54
2023-03-17T13:23:11.382Z,42.86
2023-03-17T13:25:27.348Z,42.73
2023-03-17T13:27:31.778Z,42.81
2023-03-17T13:29:33.122Z,42.82
2023-03-17T13:31:37.531Z,42.97
2023-03-17T13:33:44.697Z,44.00
2023-03-17T13:35:46.218Z,45.84
2023-03-17T13:38:03.185Z,43.59
2023-03-17T13:40:14.015Z,42.68
2023-03-17T13:42:26.688Z,43.38
2023-03-17T13:44:32.452Z,43.69
2023-03-17T13:46:37.512Z,42.90
2023-03-17T13:48:40.720Z,42.30
2023-03-17T13:50:42.965Z,42.41
2023-03-17T13:53:01.597Z,42.39
2023-03-17T13:55:18.316Z,42.38
2023-03-17T13:57:35.121Z,41.88
2023-03-17T13:59:55.958Z,42.03
2023-03-17T14:02:01.499Z,42.40
2023-03-17T14:04:05.985Z,42.97
2023-03-17T14:06:08.958Z,42.34
2023-03-17T14:08:24.225Z,41.48
2023-03-17T14:10:28.650Z,42.44
2023-03-17T14:12:42.870Z,43.50
2023-03-17T14:15:19.205Z,42.70
2023-03-17T14:17:24.016Z,42.80
2023-03-17T14:19:28.292Z,43.31
2023-03-17T14:21:33.373Z,41.75
2023-03-17T14:23:35.799Z,46.34
2023-03-17T14:25:39.156Z,42.24
2023-03-17T14:27:41.324Z,41.79
2023-03-17T14:29:43.276Z,42.25
2023-03-17T14:31:52.225Z,42.08
2023-03-17T14:34:01.233Z,43.29
2023-03-17T14:36:07.721Z,43.25
2023-03-17T14:38:19.850Z,41.71
2023-03-17T14:40:24.262Z,42.32
2023-03-17T14:42:28.264Z,44.21
2023-03-17T14:44:37.358Z,44.13
2023-03-17T14:46:41.077Z,44.55
2023-03-17T14:48:46.563Z,43.83
2023-03-17T14:50:54.874Z,43.50
2023-03-17T14:52:59.836Z,43.93
2023-03-17T14:55:01.680Z,43.50
2023-03-17T14:57:07.835Z,44.08
2023-03-17T14:59:34.172Z,43.76
2023-03-17T15:01:44.459Z,43.59
2023-03-17T15:03:58.837Z,43.79
2023-03-17T15:06:23.815Z,42.94
2023-03-17T15:08:42.691Z,44.14
2023-03-17T15:10:44.583Z,44.22
2023-03-17T15:12:48.291Z,46.05
2023-03-17T15:14:53.790Z,43.69
2023-03-17T15:16:55.966Z,44.36
2023-03-17T15:19:05.079Z,43.63
2023-03-17T15:21:22.663Z,43.39
2023-03-17T15:23:28.258Z,44.27
2023-03-17T15:25:38.245Z,43.46
2023-03-17T15:27:39.606Z,45.38
2023-03-17T15:29:41.248Z,45.15
2023-03-17T15:31:42.706Z,46.20
2023-03-17T15:33:44.634Z,44.06
2023-03-17T15:35:46.408Z,44.14
2023-03-17T15:37:47.858Z,46.38
2023-03-17T15:39:50.240Z,45.89
2023-03-17T15:41:51.659Z,46.49
2023-03-17T15:43:53.592Z,46.72
2023-03-17T15:46:01.312Z,46.65
2023-03-17T15:48:02.830Z,45.23
2023-03-17T15:50:29.170Z,45.85
2023-03-17T15:52:30.905Z,45.47
2023-03-17T15:54:32.313Z,47.21
2023-03-17T15:56:34.531Z,49.05
2023-03-17T15:58:36.200Z,48.26
2023-03-17T16:00:38.311Z,48.45
2023-03-17T16:02:39.767Z,47.95
2023-03-17T16:04:41.247Z,48.94
2023-03-17T16:06:42.764Z,48.39
2023-03-17T16:08:45.056Z,48.10
2023-03-17T16:10:46.888Z,48.84
2023-03-17T16:12:49.226Z,49.30
2023-03-17T16:14:51.458Z,48.93
2023-03-17T16:16:52.884Z,49.59
2023-03-17T16:18:54.317Z,49.12
2023-03-17T16:20:56.183Z,48.66
2023-03-17T16:23:03.172Z,48.65
2023-03-17T16:25:27.835Z,48.29
2023-03-17T16:27:29.231Z,48.93
2023-03-17T16:29:30.588Z,49.35
2023-03-17T16:31:32.054Z,49.31
2023-03-17T16:33:39.056Z,49.56
2023-03-17T16:35:40.528Z,51.05
2023-03-17T16:37:42.468Z,50.02
2023-03-17T16:39:43.901Z,49.04
2023-03-17T16:41:47.473Z,50.15
2023-03-17T16:43:53.536Z,49.00
2023-03-17T16:45:59.072Z,50.72
2023-03-17T16:48:04.201Z,49.60
2023-03-17T16:50:17.708Z,49.27
2023-03-17T16:52:19.109Z,50.27
2023-03-17T16:54:20.730Z,50.02
2023-03-17T16:56:24.668Z,52.06
2023-03-17T16:58:34.169Z,50.05
2023-03-17T17:00:35.986Z,49.95
2023-03-17T17:02:37.452Z,51.58
2023-03-17T17:04:41.029Z,51.81
2023-03-17T17:06:42.433Z,52.12
2023-03-17T17:08:45.298Z,52.19
2023-03-17T17:10:46.777Z,52.07
2023-03-17T17:12:49.002Z,50.97
2023-03-17T17:14:50.414Z,51.83
2023-03-17T17:16:51.800Z,50.62
2023-03-17T17:18:53.465Z,51.00
2023-03-17T17:20:56.612Z,50.47
2023-03-17T17:22:59.003Z,52.68
2023-03-17T17:25:00.658Z,52.25
2023-03-17T17:27:02.053Z,52.21
2023-03-17T17:29:03.683Z,51.28
2023-03-17T17:31:05.351Z,52.72
2023-03-17T17:33:06.868Z,52.76
2023-03-17T17:35:09.232Z,52.77
2023-03-17T17:37:11.574Z,52.22
2023-03-17T17:39:13.766Z,52.44
2023-03-17T17:41:16.919Z,52.48
2023-03-17T17:43:18.572Z,52.85
2023-03-17T17:45:20.912Z,52.34
2023-03-17T17:47:22.298Z,52.91
2023-03-17T17:49:24.407Z,53.76
2023-03-17T17:51:26.043Z,54.24
2023-03-17T17:53:27.503Z,53.75
2023-03-17T17:55:29.432Z,55.20
2023-03-17T17:57:30.923Z,55.74
2023-03-17T17:59:32.764Z,53.58
2023-03-17T18:01:34.281Z,52.86
2023-03-17T18:03:36.929Z,54.09
2023-03-17T18:05:38.512Z,55.03
2023-03-17T18:07:40.566Z,53.58
2023-03-17T18:09:41.966Z,54.34
2023-03-17T18:11:43.931Z,55.07
2023-03-17T18:13:45.528Z,55.09
2023-03-17T18:15:46.988Z,55.19
2023-03-17T18:17:49.358Z,54.29
2023-03-17T18:19:55.105Z,53.82
2023-03-17T18:21:57.000Z,53.96
2023-03-17T18:23:59.496Z,54.92
2023-03-17T18:26:02.253Z,55.17
2023-03-17T18:28:04.236Z,55.59
2023-03-17T18:30:07.641Z,56.04
2023-03-17T18:32:10.343Z,54.79
2023-03-17T18:34:21.764Z,54.97
2023-03-17T18:36:24.188Z,56.26
2023-03-17T18:38:26.003Z,55.43
2023-03-17T18:40:27.709Z,54.83
2023-03-17T18:42:29.112Z,55.88
2023-03-17T18:44:30.651Z,55.27
2023-03-17T18:46:32.816Z,56.06
2023-03-17T18:48:36.061Z,57.28
2023-03-17T18:50:37.718Z,57.06
2023-03-17T18:52:41.173Z,57.09
2023-03-17T18:54:42.627Z,56.70
2023-03-17T18:56:44.110Z,55.41
2023-03-17T18:58:45.499Z,55.44
2023-03-17T19:00:49.001Z,56.35
2023-03-17T19:02:50.699Z,55.00
2023-03-17T19:04:52.210Z,55.12
2023-03-17T19:06:53.671Z,55.71
2023-03-17T19:08:56.174Z,56.08
2023-03-17T19:10:57.561Z,56.09
2023-03-17T19:12:59.705Z,56.07
2023-03-17T19:15:01.653Z,56.06
2023-03-17T19:17:03.791Z,56.28
2023-03-17T19:19:05.224Z,55.77
2023-03-17T19:21:09.558Z,56.08
2023-03-17T19:23:11.362Z,55.78
2023-03-17T19:25:13.036Z,55.62
2023-03-17T19:27:14.506Z,54.73
2023-03-17T19:29:16.635Z,55.03
2023-03-17T19:31:18.115Z,55.72
2023-03-17T19:33:19.691Z,55.52
2023-03-17T19:35:22.164Z,55.78
2023-03-17T19:37:23.608Z,54.67
2023-03-17T19:39:25.918Z,56.37
2023-03-17T19:41:27.303Z,55.98
2023-03-17T19:43:39.970Z,55.42
2023-03-17T19:45:42.565Z,55.55
2023-03-17T19:47:44.045Z,54.66
2023-03-17T19:49:45.865Z,55.08
2023-03-17T19:51:47.460Z,54.42
2023-03-17T19:53:48.948Z,54.50
2023-03-17T19:55:50.310Z,54.85
2023-03-17T19:57:51.782Z,55.85
2023-03-17T19:59:53.259Z,55.13
2023-03-17T20:01:54.895Z,55.93
2023-03-17T20:03:56.464Z,56.42
2023-03-17T20:05:57.870Z,55.45
2023-03-17T20:07:59.257Z,56.51
2023-03-17T20:10:01.335Z,57.44
2023-03-17T20:12:02.875Z,56.81
2023-03-17T20:14:04.984Z,55.87
2023-03-17T20:16:08.143Z,57.03
2023-03-17T20:18:10.879Z,57.05
2023-03-17T20:20:12.651Z,56.08
2023-03-17T20:22:14.064Z,56.84
2023-03-17T20:24:15.477Z,57.25
2023-03-17T20:26:17.592Z,57.19
2023-03-17T20:28:19.942Z,57.57
2023-03-17T20:30:22.366Z,57.90
2023-03-17T20:32:23.795Z,57.57
2023-03-17T20:34:25.897Z,57.42
2023-03-17T20:36:27.412Z,57.93
2023-03-17T20:38:29.197Z,57.81
2023-03-17T20:40:31.098Z,58.45
2023-03-17T20:42:32.833Z,58.52
2023-03-17T20:44:34.273Z,59.69
2023-03-17T20:46:36.024Z,59.43
2023-03-17T20:48:37.752Z,58.71
2023-03-17T20:50:39.327Z,58.71
2023-03-17T20:52:41.875Z,58.26
2023-03-17T20:54:43.659Z,59.68
2023-03-17T20:56:45.651Z,58.63
2023-03-17T20:58:48.597Z,57.83
2023-03-17T21:00:51.028Z,58.11
2023-03-17T21:02:53.167Z,58.41
2023-03-17T21:04:54.686Z,57.88
2023-03-17T21:06:56.256Z,58.23
2023-03-17T21:08:57.697Z,57.54
2023-03-17T21:10:59.498Z,58.09
2023-03-17T21:13:01.261Z,58.49
2023-03-17T21:15:03.527Z,58.56
2023-03-17T21:17:05.055Z,58.09
2023-03-17T21:19:09.477Z,58.40
2023-03-17T21:21:11.641Z,58.31
2023-03-17T21:23:13.272Z,58.32
2023-03-17T21:25:14.841Z,59.05
2023-03-17T21:27:17.237Z,59.35
2023-03-17T21:29:18.719Z,58.45
2023-03-17T21:31:20.245Z,58.60
2023-03-17T21:33:21.962Z,59.69
2023-03-17T21:35:24.991Z,60.16
2023-03-17T21:37:26.466Z,60.54
2023-03-17T21:39:29.744Z,59.99
2023-03-17T21:41:34.228Z,61.07
2023-03-17T21:43:35.728Z,61.85
2023-03-17T21:45:37.774Z,61.94
2023-03-17T21:47:41.768Z,62.66
2023-03-17T21:49:43.325Z,63.26
2023-03-17T21:51:46.605Z,63.55
2023-03-17T21:53:48.431Z,64.68
2023-03-17T21:55:50.002Z,65.52
2023-03-17T21:57:51.421Z,65.62
2023-03-17T21:59:53.223Z,65.40
2023-03-17T22:01:54.777Z,65.64
2023-03-17T22:03:56.210Z,66.35
2023-03-17T22:05:58.721Z,66.30
2023-03-17T22:08:00.473Z,66.34
2023-03-17T22:10:01.928Z,66.45
2023-03-17T22:12:04.323Z,67.20
2023-03-17T22:14:05.862Z,66.90
2023-03-17T22:16:08.132Z,67.40
2023-03-17T22:18:09.593Z,68.64
2023-03-17T22:20:11.649Z,69.26
2023-03-17T22:22:13.013Z,69.45
2023-03-17T22:24:14.402Z,69.66
2023-03-17T22:26:18.986Z,70.84
2023-03-17T22:28:20.475Z,70.64
2023-03-17T22:30:21.920Z,71.89
2023-03-17T22:32:23.364Z,72.59
2023-03-17T22:34:25.415Z,72.28
2023-03-17T22:36:27.754Z,72.36
2023-03-17T22:38:29.198Z,72.70
2023-03-17T22:40:30.840Z,72.15
2023-03-17T22:42:33.215Z,72.36
2023-03-17T22:44:34.659Z,72.58
2023-03-17T22:46:40.772Z,72.59
2023-03-17T22:48:42.254Z,74.04
2023-03-17T22:50:43.768Z,73.89
2023-03-17T22:52:45.191Z,73.09
2023-03-17T22:54:46.601Z,73.96
2023-03-17T22:56:48.493Z,73.15
2023-03-17T22:58:49.893Z,74.39
2023-03-17T23:00:51.521Z,73.50
2023-03-17T23:02:52.949Z,74.20
2023-03-17T23:04:54.395Z,73.86
2023-03-17T23:06:56.230Z,74.07
2023-03-17T23:08:57.868Z,73.63
2023-03-17T23:11:00.623Z,75.22
2023-03-17T23:13:01.981Z,74.37
2023-03-17T23:15:04.403Z,74.44
2023-03-17T23:17:07.416Z,74.09
2023-03-17T23:19:09.016Z,74.87
2023-03-17T23:21:10.647Z,73.82
2023-03-17T23:23:12.756Z,74.52
2023-03-17T23:25:14.397Z,74.72
2023-03-17T23:27:15.791Z,76.26
2023-03-17T23:29:17.557Z,76.42
2023-03-17T23:31:22.182Z,75.75
2023-03-17T23:33:25.360Z,76.25
2023-03-17T23:35:27.734Z,75.88
2023-03-17T23:37:29.296Z,75.09
2023-03-17T23:39:30.893Z,75.45
2023-03-17T23:41:32.711Z,75.33
2023-03-17T23:43:34.516Z,76.03
2023-03-17T23:45:36.003Z,76.68
2023-03-17T23:47:38.269Z,75.65
2023-03-17T23:49:39.693Z,75.93
2023-03-17T23:51:41.392Z,75.31
2023-03-17T23:53:42.910Z,76.78
2023-03-17T23:55:45.231Z,76.15
2023-03-17T23:57:46.739Z,76.30
2023-03-17T23:59:48.209Z,76.30
